sensor_id;sensor_type;location;lat;lon;timestamp;temperature;humidity
31747;DHT22;18319;48.974;8.462;2023-05-19T00:01:12;10.40;84.40
31747;DHT22;18319;48.974;8.462;2023-05-19T00:03:48;10.30;85.80
31747;DHT22;18319;48.974;8.462;2023-05-19T00:06:21;10.30;85.70
31747;DHT22;18319;48.974;8.462;2023-05-19T00:08:49;10.30;85.90
31747;DHT22;18319;48.974;8.462;2023-05-19T00:11:18;10.30;86.40
31747;DHT22;18319;48.974;8.462;2023-05-19T00:13:48;10.30;86.60
31747;DHT22;18319;48.974;8.462;2023-05-19T00:16:42;10.30;86.70
31747;DHT22;18319;48.974;8.462;2023-05-19T00:19:13;10.30;86.90
31747;DHT22;18319;48.974;8.462;2023-05-19T00:21:41;10.30;87.60
31747;DHT22;18319;48.974;8.462;2023-05-19T00:24:07;10.20;87.40
31747;DHT22;18319;48.974;8.462;2023-05-19T00:26:34;10.30;87.70
31747;DHT22;18319;48.974;8.462;2023-05-19T00:29:02;10.20;87.90
31747;DHT22;18319;48.974;8.462;2023-05-19T00:31:29;10.20;88.70
31747;DHT22;18319;48.974;8.462;2023-05-19T00:33:58;10.20;88.60
31747;DHT22;18319;48.974;8.462;2023-05-19T00:36:25;10.20;89.00
31747;DHT22;18319;48.974;8.462;2023-05-19T00:38:51;10.10;89.40
31747;DHT22;18319;48.974;8.462;2023-05-19T00:41:18;10.10;89.80
31747;DHT22;18319;48.974;8.462;2023-05-19T00:43:45;10.00;90.50
31747;DHT22;18319;48.974;8.462;2023-05-19T00:46:13;9.90;90.60
31747;DHT22;18319;48.974;8.462;2023-05-19T00:48:40;9.90;90.80
31747;DHT22;18319;48.974;8.462;2023-05-19T00:51:09;9.90;91.10
31747;DHT22;18319;48.974;8.462;2023-05-19T00:53:39;9.90;91.30
31747;DHT22;18319;48.974;8.462;2023-05-19T00:56:06;9.80;91.70
31747;DHT22;18319;48.974;8.462;2023-05-19T00:58:33;9.80;92.00
31747;DHT22;18319;48.974;8.462;2023-05-19T01:01:01;9.80;92.10
31747;DHT22;18319;48.974;8.462;2023-05-19T01:03:34;9.80;93.50
31747;DHT22;18319;48.974;8.462;2023-05-19T01:06:01;9.70;94.40
31747;DHT22;18319;48.974;8.462;2023-05-19T01:08:30;9.70;94.50
31747;DHT22;18319;48.974;8.462;2023-05-19T01:10:57;9.60;94.60
31747;DHT22;18319;48.974;8.462;2023-05-19T01:13:27;9.60;95.00
31747;DHT22;18319;48.974;8.462;2023-05-19T01:16:02;9.50;95.20
31747;DHT22;18319;48.974;8.462;2023-05-19T01:18:40;9.40;95.10
31747;DHT22;18319;48.974;8.462;2023-05-19T01:24:22;9.40;96.30
31747;DHT22;18319;48.974;8.462;2023-05-19T01:27:22;9.30;97.00
31747;DHT22;18319;48.974;8.462;2023-05-19T01:32:48;9.20;96.80
31747;DHT22;18319;48.974;8.462;2023-05-19T01:35:17;9.20;97.40
31747;DHT22;18319;48.974;8.462;2023-05-19T01:37:45;9.20;97.20
31747;DHT22;18319;48.974;8.462;2023-05-19T01:40:13;9.20;97.70
31747;DHT22;18319;48.974;8.462;2023-05-19T01:42:40;9.20;98.00
31747;DHT22;18319;48.974;8.462;2023-05-19T01:45:08;9.10;99.10
31747;DHT22;18319;48.974;8.462;2023-05-19T01:47:37;9.10;99.40
31747;DHT22;18319;48.974;8.462;2023-05-19T01:50:07;9.10;99.30
31747;DHT22;18319;48.974;8.462;2023-05-19T01:52:34;9.10;99.90
31747;DHT22;18319;48.974;8.462;2023-05-19T01:55:01;9.10;99.90
31747;DHT22;18319;48.974;8.462;2023-05-19T01:57:33;9.10;99.90
31747;DHT22;18319;48.974;8.462;2023-05-19T02:00:10;9.10;99.90
31747;DHT22;18319;48.974;8.462;2023-05-19T02:02:54;9.00;99.90
31747;DHT22;18319;48.974;8.462;2023-05-19T02:05:30;9.00;99.90
31747;DHT22;18319;48.974;8.462;2023-05-19T02:08:05;9.00;99.90
31747;DHT22;18319;48.974;8.462;2023-05-19T02:10:36;9.00;99.90
31747;DHT22;18319;48.974;8.462;2023-05-19T02:13:05;9.00;99.90
31747;DHT22;18319;48.974;8.462;2023-05-19T02:15:39;9.00;99.90
31747;DHT22;18319;48.974;8.462;2023-05-19T02:18:07;9.00;99.90
31747;DHT22;18319;48.974;8.462;2023-05-19T02:20:37;9.00;99.90
31747;DHT22;18319;48.974;8.462;2023-05-19T02:23:04;8.90;99.90
31747;DHT22;18319;48.974;8.462;2023-05-19T02:25:30;8.90;99.90
31747;DHT22;18319;48.974;8.462;2023-05-19T02:27:58;8.90;99.90
31747;DHT22;18319;48.974;8.462;2023-05-19T02:30:25;8.90;99.90
31747;DHT22;18319;48.974;8.462;2023-05-19T02:32:56;8.80;99.90
31747;DHT22;18319;48.974;8.462;2023-05-19T02:35:22;8.80;99.90
31747;DHT22;18319;48.974;8.462;2023-05-19T02:37:50;8.80;99.90
31747;DHT22;18319;48.974;8.462;2023-05-19T02:40:18;8.80;99.90
31747;DHT22;18319;48.974;8.462;2023-05-19T02:42:45;8.80;99.90
31747;DHT22;18319;48.974;8.462;2023-05-19T02:45:12;8.70;99.90
31747;DHT22;18319;48.974;8.462;2023-05-19T02:47:38;8.70;99.90
31747;DHT22;18319;48.974;8.462;2023-05-19T02:50:07;8.70;99.90
31747;DHT22;18319;48.974;8.462;2023-05-19T02:52:33;8.60;99.90
31747;DHT22;18319;48.974;8.462;2023-05-19T02:55:02;8.60;99.90
31747;DHT22;18319;48.974;8.462;2023-05-19T02:57:28;8.60;99.90
31747;DHT22;18319;48.974;8.462;2023-05-19T02:59:56;8.70;99.90
31747;DHT22;18319;48.974;8.462;2023-05-19T03:02:22;8.70;99.90
31747;DHT22;18319;48.974;8.462;2023-05-19T03:04:49;8.70;99.90
31747;DHT22;18319;48.974;8.462;2023-05-19T03:07:16;8.70;99.90
31747;DHT22;18319;48.974;8.462;2023-05-19T03:09:43;8.70;99.90
31747;DHT22;18319;48.974;8.462;2023-05-19T03:12:11;8.80;99.90
31747;DHT22;18319;48.974;8.462;2023-05-19T03:14:37;8.80;99.90
31747;DHT22;18319;48.974;8.462;2023-05-19T03:17:04;8.80;99.90
31747;DHT22;18319;48.974;8.462;2023-05-19T03:19:32;8.80;99.90
31747;DHT22;18319;48.974;8.462;2023-05-19T03:21:59;8.80;99.90
31747;DHT22;18319;48.974;8.462;2023-05-19T03:24:26;8.90;99.90
31747;DHT22;18319;48.974;8.462;2023-05-19T03:26:53;8.80;99.90
31747;DHT22;18319;48.974;8.462;2023-05-19T03:29:21;8.80;99.90
31747;DHT22;18319;48.974;8.462;2023-05-19T03:31:48;8.80;99.90
31747;DHT22;18319;48.974;8.462;2023-05-19T03:34:16;8.80;99.90
31747;DHT22;18319;48.974;8.462;2023-05-19T03:36:43;8.80;99.90
31747;DHT22;18319;48.974;8.462;2023-05-19T03:39:09;8.80;99.90
31747;DHT22;18319;48.974;8.462;2023-05-19T03:41:36;8.80;99.90
31747;DHT22;18319;48.974;8.462;2023-05-19T03:44:03;8.80;99.90
31747;DHT22;18319;48.974;8.462;2023-05-19T03:46:31;8.80;99.90
31747;DHT22;18319;48.974;8.462;2023-05-19T03:48:58;8.80;99.90
31747;DHT22;18319;48.974;8.462;2023-05-19T03:51:25;8.80;99.90
31747;DHT22;18319;48.974;8.462;2023-05-19T03:53:52;8.80;99.90
31747;DHT22;18319;48.974;8.462;2023-05-19T03:56:19;8.80;99.90
31747;DHT22;18319;48.974;8.462;2023-05-19T03:58:49;8.90;99.90
31747;DHT22;18319;48.974;8.462;2023-05-19T04:01:16;8.90;99.90
31747;DHT22;18319;48.974;8.462;2023-05-19T04:03:44;8.90;99.90
31747;DHT22;18319;48.974;8.462;2023-05-19T04:06:11;9.00;99.90
31747;DHT22;18319;48.974;8.462;2023-05-19T04:08:39;9.00;99.90
31747;DHT22;18319;48.974;8.462;2023-05-19T04:11:05;9.10;99.90
31747;DHT22;18319;48.974;8.462;2023-05-19T04:13:32;9.10;99.90
31747;DHT22;18319;48.974;8.462;2023-05-19T04:15:59;9.10;99.90
31747;DHT22;18319;48.974;8.462;2023-05-19T04:18:26;9.20;99.90
31747;DHT22;18319;48.974;8.462;2023-05-19T04:20:54;9.20;99.90
31747;DHT22;18319;48.974;8.462;2023-05-19T04:23:21;9.30;99.90
31747;DHT22;18319;48.974;8.462;2023-05-19T04:25:48;9.30;99.90
31747;DHT22;18319;48.974;8.462;2023-05-19T04:28:15;9.40;99.90
31747;DHT22;18319;48.974;8.462;2023-05-19T04:30:42;9.40;99.90
31747;DHT22;18319;48.974;8.462;2023-05-19T04:33:11;9.40;99.90
31747;DHT22;18319;48.974;8.462;2023-05-19T04:35:38;9.50;99.90
31747;DHT22;18319;48.974;8.462;2023-05-19T04:38:06;9.60;99.90
31747;DHT22;18319;48.974;8.462;2023-05-19T04:40:34;9.70;99.90
31747;DHT22;18319;48.974;8.462;2023-05-19T04:43:01;9.80;99.90
31747;DHT22;18319;48.974;8.462;2023-05-19T04:45:28;9.90;99.90
31747;DHT22;18319;48.974;8.462;2023-05-19T04:47:57;10.00;99.90
31747;DHT22;18319;48.974;8.462;2023-05-19T04:50:24;10.10;99.90
31747;DHT22;18319;48.974;8.462;2023-05-19T04:52:52;10.10;99.90
31747;DHT22;18319;48.974;8.462;2023-05-19T04:55:21;10.20;99.90
31747;DHT22;18319;48.974;8.462;2023-05-19T04:57:48;10.30;99.90
31747;DHT22;18319;48.974;8.462;2023-05-19T05:00:15;10.40;99.90
31747;DHT22;18319;48.974;8.462;2023-05-19T05:02:43;10.50;99.90
31747;DHT22;18319;48.974;8.462;2023-05-19T05:05:10;10.60;99.90
31747;DHT22;18319;48.974;8.462;2023-05-19T05:07:36;10.70;99.90
31747;DHT22;18319;48.974;8.462;2023-05-19T05:10:04;10.70;99.90
31747;DHT22;18319;48.974;8.462;2023-05-19T05:12:33;10.70;99.90
31747;DHT22;18319;48.974;8.462;2023-05-19T05:15:01;10.70;99.90
31747;DHT22;18319;48.974;8.462;2023-05-19T05:17:28;10.70;99.90
31747;DHT22;18319;48.974;8.462;2023-05-19T05:19:55;10.80;99.90
31747;DHT22;18319;48.974;8.462;2023-05-19T05:22:22;10.90;99.90
31747;DHT22;18319;48.974;8.462;2023-05-19T05:24:50;10.90;99.90
31747;DHT22;18319;48.974;8.462;2023-05-19T05:27:16;10.90;99.90
31747;DHT22;18319;48.974;8.462;2023-05-19T05:29:45;10.90;99.90
31747;DHT22;18319;48.974;8.462;2023-05-19T05:32:11;10.90;99.90
31747;DHT22;18319;48.974;8.462;2023-05-19T05:34:38;10.90;99.90
31747;DHT22;18319;48.974;8.462;2023-05-19T05:37:06;10.90;99.90
31747;DHT22;18319;48.974;8.462;2023-05-19T05:39:33;10.80;99.90
31747;DHT22;18319;48.974;8.462;2023-05-19T05:42:00;10.70;99.90
31747;DHT22;18319;48.974;8.462;2023-05-19T05:44:26;10.70;99.90
31747;DHT22;18319;48.974;8.462;2023-05-19T05:46:55;10.60;99.90
31747;DHT22;18319;48.974;8.462;2023-05-19T05:49:22;10.60;99.90
31747;DHT22;18319;48.974;8.462;2023-05-19T05:51:49;10.60;99.90
31747;DHT22;18319;48.974;8.462;2023-05-19T05:54:19;10.60;99.90
31747;DHT22;18319;48.974;8.462;2023-05-19T05:56:47;10.60;99.90
31747;DHT22;18319;48.974;8.462;2023-05-19T05:59:14;10.70;99.90
31747;DHT22;18319;48.974;8.462;2023-05-19T06:01:42;10.80;99.90
31747;DHT22;18319;48.974;8.462;2023-05-19T06:04:10;10.90;99.90
31747;DHT22;18319;48.974;8.462;2023-05-19T06:06:37;11.00;99.90
31747;DHT22;18319;48.974;8.462;2023-05-19T06:09:04;11.20;99.90
31747;DHT22;18319;48.974;8.462;2023-05-19T06:11:31;11.20;99.90
31747;DHT22;18319;48.974;8.462;2023-05-19T06:13:58;11.30;99.90
31747;DHT22;18319;48.974;8.462;2023-05-19T06:16:25;11.40;99.90
31747;DHT22;18319;48.974;8.462;2023-05-19T06:18:52;11.60;99.90
31747;DHT22;18319;48.974;8.462;2023-05-19T06:21:20;11.70;99.90
31747;DHT22;18319;48.974;8.462;2023-05-19T06:23:47;11.90;99.90
31747;DHT22;18319;48.974;8.462;2023-05-19T06:26:14;12.00;99.90
31747;DHT22;18319;48.974;8.462;2023-05-19T06:28:41;12.10;99.90
31747;DHT22;18319;48.974;8.462;2023-05-19T06:31:07;12.20;99.60
31747;DHT22;18319;48.974;8.462;2023-05-19T06:33:34;12.30;98.50
31747;DHT22;18319;48.974;8.462;2023-05-19T06:36:01;12.40;98.90
31747;DHT22;18319;48.974;8.462;2023-05-19T06:38:29;12.40;99.40
31747;DHT22;18319;48.974;8.462;2023-05-19T06:40:56;12.40;97.90
31747;DHT22;18319;48.974;8.462;2023-05-19T06:43:23;12.50;98.10
31747;DHT22;18319;48.974;8.462;2023-05-19T06:45:50;12.50;97.90
31747;DHT22;18319;48.974;8.462;2023-05-19T06:48:17;12.60;97.50
31747;DHT22;18319;48.974;8.462;2023-05-19T06:50:43;12.60;97.10
31747;DHT22;18319;48.974;8.462;2023-05-19T06:53:10;12.70;96.60
31747;DHT22;18319;48.974;8.462;2023-05-19T06:55:38;12.80;97.30
31747;DHT22;18319;48.974;8.462;2023-05-19T06:58:05;12.80;95.70
31747;DHT22;18319;48.974;8.462;2023-05-19T07:00:32;12.80;95.00
31747;DHT22;18319;48.974;8.462;2023-05-19T07:02:59;12.80;95.40
31747;DHT22;18319;48.974;8.462;2023-05-19T07:05:26;12.80;95.40
31747;DHT22;18319;48.974;8.462;2023-05-19T07:07:52;12.90;96.60
31747;DHT22;18319;48.974;8.462;2023-05-19T07:10:19;12.90;96.20
31747;DHT22;18319;48.974;8.462;2023-05-19T07:12:48;12.90;95.00
31747;DHT22;18319;48.974;8.462;2023-05-19T07:15:14;13.00;95.60
31747;DHT22;18319;48.974;8.462;2023-05-19T07:17:41;13.10;94.30
31747;DHT22;18319;48.974;8.462;2023-05-19T07:20:09;13.10;94.50
31747;DHT22;18319;48.974;8.462;2023-05-19T07:22:36;13.30;94.60
31747;DHT22;18319;48.974;8.462;2023-05-19T07:25:04;13.30;93.30
31747;DHT22;18319;48.974;8.462;2023-05-19T07:27:31;13.50;93.90
31747;DHT22;18319;48.974;8.462;2023-05-19T07:29:59;13.70;94.20
31747;DHT22;18319;48.974;8.462;2023-05-19T07:32:26;13.80;93.70
31747;DHT22;18319;48.974;8.462;2023-05-19T07:34:53;14.00;93.20
31747;DHT22;18319;48.974;8.462;2023-05-19T07:37:19;14.20;92.90
31747;DHT22;18319;48.974;8.462;2023-05-19T07:39:46;14.50;90.80
31747;DHT22;18319;48.974;8.462;2023-05-19T07:42:13;15.20;91.00
31747;DHT22;18319;48.974;8.462;2023-05-19T07:44:40;16.10;89.60
31747;DHT22;18319;48.974;8.462;2023-05-19T07:47:08;17.10;87.30
31747;DHT22;18319;48.974;8.462;2023-05-19T07:49:35;18.20;81.30
31747;DHT22;18319;48.974;8.462;2023-05-19T07:52:02;19.10;75.20
31747;DHT22;18319;48.974;8.462;2023-05-19T07:54:28;19.70;69.60
31747;DHT22;18319;48.974;8.462;2023-05-19T07:56:55;20.40;66.30
31747;DHT22;18319;48.974;8.462;2023-05-19T07:59:22;21.00;60.50
31747;DHT22;18319;48.974;8.462;2023-05-19T08:01:49;21.30;59.60
31747;DHT22;18319;48.974;8.462;2023-05-19T08:04:17;21.70;55.60
31747;DHT22;18319;48.974;8.462;2023-05-19T08:06:44;22.00;53.30
31747;DHT22;18319;48.974;8.462;2023-05-19T08:09:11;22.30;52.10
31747;DHT22;18319;48.974;8.462;2023-05-19T08:11:38;22.70;52.30
31747;DHT22;18319;48.974;8.462;2023-05-19T08:14:05;23.00;48.40
31747;DHT22;18319;48.974;8.462;2023-05-19T08:16:31;22.80;46.20
31747;DHT22;18319;48.974;8.462;2023-05-19T08:18:58;23.00;46.00
31747;DHT22;18319;48.974;8.462;2023-05-19T08:21:28;23.30;46.60
31747;DHT22;18319;48.974;8.462;2023-05-19T08:23:55;23.80;45.80
31747;DHT22;18319;48.974;8.462;2023-05-19T08:26:22;24.10;45.60
31747;DHT22;18319;48.974;8.462;2023-05-19T08:28:49;24.30;44.10
31747;DHT22;18319;48.974;8.462;2023-05-19T08:31:15;24.10;41.80
31747;DHT22;18319;48.974;8.462;2023-05-19T08:33:43;23.50;40.70
31747;DHT22;18319;48.974;8.462;2023-05-19T08:36:10;23.00;41.30
31747;DHT22;18319;48.974;8.462;2023-05-19T08:38:38;22.80;42.40
31747;DHT22;18319;48.974;8.462;2023-05-19T08:41:05;22.50;44.90
31747;DHT22;18319;48.974;8.462;2023-05-19T08:43:31;22.40;44.60
31747;DHT22;18319;48.974;8.462;2023-05-19T08:45:59;22.40;43.60
31747;DHT22;18319;48.974;8.462;2023-05-19T08:48:27;22.10;43.40
31747;DHT22;18319;48.974;8.462;2023-05-19T08:50:59;22.10;43.00
31747;DHT22;18319;48.974;8.462;2023-05-19T08:53:35;22.10;45.30
31747;DHT22;18319;48.974;8.462;2023-05-19T08:56:09;22.20;45.00
31747;DHT22;18319;48.974;8.462;2023-05-19T08:58:38;22.70;47.00
31747;DHT22;18319;48.974;8.462;2023-05-19T09:01:06;22.60;48.80
31747;DHT22;18319;48.974;8.462;2023-05-19T09:03:33;22.60;41.40
31747;DHT22;18319;48.974;8.462;2023-05-19T09:06:04;22.30;42.40
31747;DHT22;18319;48.974;8.462;2023-05-19T09:08:31;22.10;44.50
31747;DHT22;18319;48.974;8.462;2023-05-19T09:10:58;22.00;42.90
31747;DHT22;18319;48.974;8.462;2023-05-19T09:13:26;22.40;43.60
31747;DHT22;18319;48.974;8.462;2023-05-19T09:15:55;22.80;44.00
31747;DHT22;18319;48.974;8.462;2023-05-19T09:18:24;23.40;43.60
31747;DHT22;18319;48.974;8.462;2023-05-19T09:20:55;23.80;43.00
31747;DHT22;18319;48.974;8.462;2023-05-19T09:23:29;24.10;41.00
31747;DHT22;18319;48.974;8.462;2023-05-19T09:26:20;24.30;39.10
31747;DHT22;18319;48.974;8.462;2023-05-19T09:29:15;23.20;38.20
31747;DHT22;18319;48.974;8.462;2023-05-19T09:31:49;22.70;40.60
31747;DHT22;18319;48.974;8.462;2023-05-19T09:34:16;22.60;40.40
31747;DHT22;18319;48.974;8.462;2023-05-19T09:36:46;22.70;39.90
31747;DHT22;18319;48.974;8.462;2023-05-19T09:39:14;22.80;39.40
31747;DHT22;18319;48.974;8.462;2023-05-19T09:41:41;22.40;38.80
31747;DHT22;18319;48.974;8.462;2023-05-19T09:44:12;21.90;39.60
31747;DHT22;18319;48.974;8.462;2023-05-19T09:46:46;21.70;42.10
31747;DHT22;18319;48.974;8.462;2023-05-19T09:49:18;21.70;41.10
31747;DHT22;18319;48.974;8.462;2023-05-19T09:51:45;21.40;40.90
31747;DHT22;18319;48.974;8.462;2023-05-19T09:54:14;21.40;41.70
31747;DHT22;18319;48.974;8.462;2023-05-19T09:56:41;21.20;41.20
31747;DHT22;18319;48.974;8.462;2023-05-19T09:59:08;21.10;41.70
31747;DHT22;18319;48.974;8.462;2023-05-19T10:01:37;21.10;43.00
31747;DHT22;18319;48.974;8.462;2023-05-19T10:04:08;21.20;42.70
31747;DHT22;18319;48.974;8.462;2023-05-19T10:06:35;21.20;42.40
31747;DHT22;18319;48.974;8.462;2023-05-19T10:09:03;21.00;42.50
31747;DHT22;18319;48.974;8.462;2023-05-19T10:11:31;20.70;42.60
31747;DHT22;18319;48.974;8.462;2023-05-19T10:13:58;20.60;42.90
31747;DHT22;18319;48.974;8.462;2023-05-19T10:16:25;20.60;44.40
31747;DHT22;18319;48.974;8.462;2023-05-19T10:18:56;20.90;42.90
31747;DHT22;18319;48.974;8.462;2023-05-19T10:21:25;21.10;43.40
31747;DHT22;18319;48.974;8.462;2023-05-19T10:23:51;21.20;44.30
31747;DHT22;18319;48.974;8.462;2023-05-19T10:26:18;21.40;42.70
31747;DHT22;18319;48.974;8.462;2023-05-19T10:28:46;21.60;43.20
31747;DHT22;18319;48.974;8.462;2023-05-19T10:31:18;21.80;43.00
31747;DHT22;18319;48.974;8.462;2023-05-19T10:34:00;21.90;41.10
31747;DHT22;18319;48.974;8.462;2023-05-19T10:36:41;21.90;40.30
31747;DHT22;18319;48.974;8.462;2023-05-19T10:39:15;21.90;40.10
31747;DHT22;18319;48.974;8.462;2023-05-19T10:41:48;21.80;40.90
31747;DHT22;18319;48.974;8.462;2023-05-19T10:44:27;21.30;40.90
31747;DHT22;18319;48.974;8.462;2023-05-19T10:46:56;21.30;42.00
31747;DHT22;18319;48.974;8.462;2023-05-19T10:49:25;21.40;41.30
31747;DHT22;18319;48.974;8.462;2023-05-19T10:51:54;21.50;40.80
31747;DHT22;18319;48.974;8.462;2023-05-19T10:54:39;21.40;40.00
31747;DHT22;18319;48.974;8.462;2023-05-19T10:57:07;21.10;40.30
31747;DHT22;18319;48.974;8.462;2023-05-19T10:59:36;21.00;40.50
31747;DHT22;18319;48.974;8.462;2023-05-19T11:02:04;20.70;42.50
31747;DHT22;18319;48.974;8.462;2023-05-19T11:04:47;20.40;42.50
31747;DHT22;18319;48.974;8.462;2023-05-19T11:07:16;20.20;42.30
31747;DHT22;18319;48.974;8.462;2023-05-19T11:09:48;20.00;43.60
31747;DHT22;18319;48.974;8.462;2023-05-19T11:12:19;19.80;44.30
31747;DHT22;18319;48.974;8.462;2023-05-19T11:14:47;19.90;44.90
31747;DHT22;18319;48.974;8.462;2023-05-19T11:17:14;20.00;45.00
31747;DHT22;18319;48.974;8.462;2023-05-19T11:19:53;20.50;47.30
31747;DHT22;18319;48.974;8.462;2023-05-19T11:22:22;20.80;46.10
31747;DHT22;18319;48.974;8.462;2023-05-19T11:24:50;20.80;41.60
31747;DHT22;18319;48.974;8.462;2023-05-19T11:27:24;20.90;43.10
31747;DHT22;18319;48.974;8.462;2023-05-19T11:29:53;20.80;42.40
31747;DHT22;18319;48.974;8.462;2023-05-19T11:32:20;20.30;41.20
31747;DHT22;18319;48.974;8.462;2023-05-19T11:34:48;20.20;42.70
31747;DHT22;18319;48.974;8.462;2023-05-19T11:37:16;20.30;43.00
31747;DHT22;18319;48.974;8.462;2023-05-19T11:39:44;20.20;44.10
31747;DHT22;18319;48.974;8.462;2023-05-19T11:42:12;20.20;44.60
31747;DHT22;18319;48.974;8.462;2023-05-19T11:44:39;20.10;45.40
31747;DHT22;18319;48.974;8.462;2023-05-19T11:47:07;19.80;44.30
31747;DHT22;18319;48.974;8.462;2023-05-19T11:49:34;19.60;44.60
31747;DHT22;18319;48.974;8.462;2023-05-19T11:52:01;19.10;45.10
31747;DHT22;18319;48.974;8.462;2023-05-19T11:54:31;18.90;45.90
31747;DHT22;18319;48.974;8.462;2023-05-19T11:56:59;19.00;47.60
31747;DHT22;18319;48.974;8.462;2023-05-19T11:59:30;19.00;47.10
31747;DHT22;18319;48.974;8.462;2023-05-19T12:02:00;19.10;46.90
31747;DHT22;18319;48.974;8.462;2023-05-19T12:04:28;19.40;47.60
31747;DHT22;18319;48.974;8.462;2023-05-19T12:06:55;19.40;47.40
31747;DHT22;18319;48.974;8.462;2023-05-19T12:09:22;19.20;47.30
31747;DHT22;18319;48.974;8.462;2023-05-19T12:11:51;18.90;46.50
31747;DHT22;18319;48.974;8.462;2023-05-19T12:14:18;18.90;47.40
31747;DHT22;18319;48.974;8.462;2023-05-19T12:16:45;18.80;47.30
31747;DHT22;18319;48.974;8.462;2023-05-19T12:19:12;18.80;48.90
31747;DHT22;18319;48.974;8.462;2023-05-19T12:21:38;18.70;49.00
31747;DHT22;18319;48.974;8.462;2023-05-19T12:24:06;18.50;49.20
31747;DHT22;18319;48.974;8.462;2023-05-19T12:26:34;18.20;48.90
31747;DHT22;18319;48.974;8.462;2023-05-19T12:29:03;18.10;49.50
31747;DHT22;18319;48.974;8.462;2023-05-19T12:31:32;18.00;50.20
31747;DHT22;18319;48.974;8.462;2023-05-19T12:33:59;18.00;50.80
31747;DHT22;18319;48.974;8.462;2023-05-19T12:36:27;17.90;50.80
31747;DHT22;18319;48.974;8.462;2023-05-19T12:38:55;17.70;50.40
31747;DHT22;18319;48.974;8.462;2023-05-19T12:41:23;17.60;50.60
31747;DHT22;18319;48.974;8.462;2023-05-19T12:43:51;17.50;51.00
31747;DHT22;18319;48.974;8.462;2023-05-19T12:46:20;17.60;51.80
31747;DHT22;18319;48.974;8.462;2023-05-19T12:48:47;17.60;52.10
31747;DHT22;18319;48.974;8.462;2023-05-19T12:51:17;17.50;52.90
31747;DHT22;18319;48.974;8.462;2023-05-19T12:53:44;17.40;54.40
31747;DHT22;18319;48.974;8.462;2023-05-19T12:56:12;17.40;53.80
31747;DHT22;18319;48.974;8.462;2023-05-19T12:58:39;17.40;54.00
31747;DHT22;18319;48.974;8.462;2023-05-19T13:01:11;17.40;53.40
31747;DHT22;18319;48.974;8.462;2023-05-19T13:03:41;17.50;53.40
31747;DHT22;18319;48.974;8.462;2023-05-19T13:06:09;17.40;53.20
31747;DHT22;18319;48.974;8.462;2023-05-19T13:08:36;17.50;53.10
31747;DHT22;18319;48.974;8.462;2023-05-19T13:11:04;17.60;54.00
31747;DHT22;18319;48.974;8.462;2023-05-19T13:13:31;17.70;54.70
31747;DHT22;18319;48.974;8.462;2023-05-19T13:15:58;17.70;52.50
31747;DHT22;18319;48.974;8.462;2023-05-19T13:18:25;17.80;52.70
31747;DHT22;18319;48.974;8.462;2023-05-19T13:20:53;17.70;52.60
31747;DHT22;18319;48.974;8.462;2023-05-19T13:23:20;17.70;53.00
31747;DHT22;18319;48.974;8.462;2023-05-19T13:25:48;17.80;54.40
31747;DHT22;18319;48.974;8.462;2023-05-19T13:28:16;17.80;53.10
31747;DHT22;18319;48.974;8.462;2023-05-19T13:30:43;17.80;53.80
31747;DHT22;18319;48.974;8.462;2023-05-19T13:33:10;17.70;53.50
31747;DHT22;18319;48.974;8.462;2023-05-19T13:35:37;17.90;53.70
31747;DHT22;18319;48.974;8.462;2023-05-19T13:38:06;18.10;54.50
31747;DHT22;18319;48.974;8.462;2023-05-19T13:40:34;18.00;54.10
31747;DHT22;18319;48.974;8.462;2023-05-19T13:43:01;18.00;52.30
31747;DHT22;18319;48.974;8.462;2023-05-19T13:45:28;18.00;52.20
31747;DHT22;18319;48.974;8.462;2023-05-19T13:47:55;18.00;52.90
31747;DHT22;18319;48.974;8.462;2023-05-19T13:50:21;18.00;52.10
31747;DHT22;18319;48.974;8.462;2023-05-19T13:52:48;17.90;52.20
31747;DHT22;18319;48.974;8.462;2023-05-19T13:55:16;18.00;53.00
31747;DHT22;18319;48.974;8.462;2023-05-19T13:57:51;17.90;53.00
31747;DHT22;18319;48.974;8.462;2023-05-19T14:00:24;18.00;52.70
31747;DHT22;18319;48.974;8.462;2023-05-19T14:02:51;18.10;52.90
31747;DHT22;18319;48.974;8.462;2023-05-19T14:05:18;18.10;52.90
31747;DHT22;18319;48.974;8.462;2023-05-19T14:07:45;17.90;52.80
31747;DHT22;18319;48.974;8.462;2023-05-19T14:10:11;18.00;53.70
31747;DHT22;18319;48.974;8.462;2023-05-19T14:12:39;18.00;52.80
31747;DHT22;18319;48.974;8.462;2023-05-19T14:15:07;18.00;52.70
31747;DHT22;18319;48.974;8.462;2023-05-19T14:17:34;18.10;52.80
31747;DHT22;18319;48.974;8.462;2023-05-19T14:20:01;18.10;52.90
31747;DHT22;18319;48.974;8.462;2023-05-19T14:22:29;18.10;52.90
31747;DHT22;18319;48.974;8.462;2023-05-19T14:24:55;18.10;52.50
31747;DHT22;18319;48.974;8.462;2023-05-19T14:27:22;18.20;51.90
31747;DHT22;18319;48.974;8.462;2023-05-19T14:29:50;18.30;52.40
31747;DHT22;18319;48.974;8.462;2023-05-19T14:32:17;18.50;52.60
31747;DHT22;18319;48.974;8.462;2023-05-19T14:34:44;18.60;52.30
31747;DHT22;18319;48.974;8.462;2023-05-19T14:37:11;18.40;52.30
31747;DHT22;18319;48.974;8.462;2023-05-19T14:39:38;18.40;52.00
31747;DHT22;18319;48.974;8.462;2023-05-19T14:42:04;18.30;52.10
31747;DHT22;18319;48.974;8.462;2023-05-19T14:44:31;18.30;51.70
31747;DHT22;18319;48.974;8.462;2023-05-19T14:47:00;18.30;52.80
31747;DHT22;18319;48.974;8.462;2023-05-19T14:49:27;18.20;52.40
31747;DHT22;18319;48.974;8.462;2023-05-19T14:51:54;18.20;53.00
31747;DHT22;18319;48.974;8.462;2023-05-19T14:54:21;18.10;53.50
31747;DHT22;18319;48.974;8.462;2023-05-19T14:56:47;18.00;52.60
31747;DHT22;18319;48.974;8.462;2023-05-19T14:59:14;17.90;53.30
31747;DHT22;18319;48.974;8.462;2023-05-19T15:01:41;17.80;54.10
31747;DHT22;18319;48.974;8.462;2023-05-19T15:04:09;17.50;53.90
31747;DHT22;18319;48.974;8.462;2023-05-19T15:06:36;17.40;53.60
31747;DHT22;18319;48.974;8.462;2023-05-19T15:09:02;17.50;54.40
31747;DHT22;18319;48.974;8.462;2023-05-19T15:11:29;17.50;54.80
31747;DHT22;18319;48.974;8.462;2023-05-19T15:13:56;17.60;55.00
31747;DHT22;18319;48.974;8.462;2023-05-19T15:16:23;17.60;54.90
31747;DHT22;18319;48.974;8.462;2023-05-19T15:18:50;17.60;54.80
31747;DHT22;18319;48.974;8.462;2023-05-19T15:21:18;17.70;54.90
31747;DHT22;18319;48.974;8.462;2023-05-19T15:23:44;17.60;55.30
31747;DHT22;18319;48.974;8.462;2023-05-19T15:26:12;17.70;55.90
31747;DHT22;18319;48.974;8.462;2023-05-19T15:28:39;17.60;56.00
31747;DHT22;18319;48.974;8.462;2023-05-19T15:31:06;17.60;56.80
31747;DHT22;18319;48.974;8.462;2023-05-19T15:33:32;17.60;56.10
31747;DHT22;18319;48.974;8.462;2023-05-19T15:35:59;17.60;57.00
31747;DHT22;18319;48.974;8.462;2023-05-19T15:38:27;17.70;56.20
31747;DHT22;18319;48.974;8.462;2023-05-19T15:40:54;17.70;56.90
31747;DHT22;18319;48.974;8.462;2023-05-19T15:43:21;17.70;55.80
31747;DHT22;18319;48.974;8.462;2023-05-19T15:45:47;17.70;55.70
31747;DHT22;18319;48.974;8.462;2023-05-19T15:48:16;17.70;55.20